Flight Track Log - Related Links

Times and Time Zones

All times are in EDT time to prevent confusion due to time zone crossing. See the UAL1053 flight status page for this flight to view local times or setup timezone preferences in your user account.

Time Position Orientation Groundspeed Altitude Reporting Facility
EDT Latitude Longitude Course Direction KTS MPH feet Rate Location/Type
Tue 06:22:32 PM 40.6375 -74.2012 257° West 195 224 3,500  Level FlightAware ADS-B
Tue 06:22:51 PM 40.6419 -74.2256 283° West 202 232 4,500 2,824 Climbing FlightAware ADS-B
Tue 06:23:06 PM 40.6479 -74.2456 292° West 244 281 5,100 3,541 Climbing FlightAware ADS-B
Tue 06:23:52 PM 40.6670 -74.3080 292° West 247 284 8,100 4,269 Climbing FlightAware ADS-B
Tue 06:23:58 PM 40.6700 -74.3193 289° West 247 284 8,800 4,364 Climbing FlightAware ADS-B
Tue 06:24:14 PM 40.6764 -74.3411 291° West 254 292 9,700 2,870 Climbing FlightAware ADS-B
Tue 06:24:44 PM 40.6900 -74.3868 291° West 287 330 11,000 2,100 Climbing FlightAware ADS-B
Tue 06:25:14 PM 40.7056 -74.4396 291° West 320 368 11,800 1,475 Climbing FlightAware ADS-B
Tue 06:25:45 PM 40.7238 -74.5012 291° West 354 407 12,500 1,258 Climbing FlightAware ADS-B
Tue 06:26:16 PM 40.7426 -74.5631 292° West 360 414 13,100 1,031 Climbing FlightAware ADS-B
Tue 06:26:49 PM 40.7622 -74.6288 292° West 350 403 13,600 667 Climbing FlightAware ADS-B
Tue 06:27:19 PM 40.7797 -74.6886 291° West 343 395 13,800 581 Climbing FlightAware ADS-B
Tue 06:27:51 PM 40.7981 -74.7512 291° West 347 399 14,200 1,219 Climbing FlightAware ADS-B
Tue 06:28:23 PM 40.8165 -74.8141 291° West 354 407 15,100 2,156 Climbing FlightAware ADS-B
Tue 06:28:55 PM 40.8360 -74.8809 291° West 365 420 16,500 2,903 Climbing FlightAware ADS-B
Tue 06:29:25 PM 40.8546 -74.9444 291° West 371 427 18,100 2,857 Climbing FlightAware ADS-B
Tue 06:29:58 PM 40.8751 -75.0142 291° West 381 438 19,500 2,418 Climbing FlightAware ADS-B
Tue 06:30:32 PM 40.8969 -75.0892 291° West 391 450 20,800 2,217 Climbing FlightAware ADS-B
Tue 06:30:44 PM 40.9049 -75.1169 291° West 395 455 21,200 1,895 Climbing FlightAware ADS-B
Tue 06:30:51 PM 40.9082 -75.1321 286° West 396 456 21,400 1,579 Climbing FlightAware ADS-B
Tue 06:31:03 PM 40.9112 -75.1597 278° West 400 460 21,700 1,615 Climbing FlightAware ADS-B
Tue 06:31:17 PM 40.9093 -75.1960 266° West 403 464 22,100 1,826 Climbing FlightAware ADS-B
Tue 06:31:49 PM 40.8940 -75.2729 255° West 414 476 23,100 1,781 Climbing FlightAware ADS-B
Tue 06:32:21 PM 40.8780 -75.3514 255° West 423 487 24,000 1,714 Climbing FlightAware ADS-B
Tue 06:32:45 PM 40.8658 -75.4097 255° West 425 489 24,700 1,929 Climbing FlightAware ADS-B
Tue 06:33:17 PM 40.8468 -75.4900 253° West 428 493 25,800 1,905 Climbing FlightAware ADS-B
Tue 06:33:48 PM 40.8287 -75.5664 253° West 431 496 26,700 1,742 Climbing FlightAware ADS-B
Tue 06:34:19 PM 40.8096 -75.6467 253° West 436 502 27,600 1,810 Climbing FlightAware ADS-B
Tue 06:34:51 PM 40.7906 -75.7266 253° West 434 499 28,600 2,032 Climbing FlightAware ADS-B
Tue 06:35:21 PM 40.7724 -75.8025 252° West 430 495 29,700 1,400 Climbing FlightAware ADS-B
Tue 06:35:51 PM 40.7542 -75.8777 252° West 431 496 30,000 290 Climbing FlightAware ADS-B
Tue 06:36:23 PM 40.7349 -75.9576 252° West 430 495 30,000  Level FlightAware ADS-B
Tue 06:36:55 PM 40.7160 -76.0358 252° West 428 493 30,000 188 Level FlightAware ADS-B
Tue 06:37:27 PM 40.6970 -76.1143 252° West 430 495 30,200 1,161 Climbing FlightAware ADS-B
Tue 06:37:57 PM 40.6786 -76.1904 252° West 428 493 31,200 1,855 Climbing FlightAware ADS-B
Tue 06:38:22 PM 40.6719 -76.2531 262° West 424 488 31,900 1,231 Climbing FlightAware ADS-B
Tue 06:38:36 PM 40.6740 -76.2900 274° West 424 488 32,000 125 Climbing FlightAware ADS-B
Tue 06:39:10 PM 40.6866 -76.3747 281° West 425 489 32,000  Level FlightAware ADS-B
Tue 06:39:47 PM 40.7007 -76.4700 281° West 427 491 32,000  Level FlightAware ADS-B
Tue 06:40:19 PM 40.7127 -76.5507 281° West 426 490 32,000 -277 Level FlightAware ADS-B
Tue 06:40:52 PM 40.7230 -76.6200 281° West 422 486 31,700 -615 Descending FlightAware ADS-B
Tue 06:40:58 PM 40.7271 -76.6486 281° West 425 489 31,600 -900 Descending FlightAware ADS-B
Tue 06:41:32 PM 40.7399 -76.7359 281° West 426 490 31,100 -938 Descending FlightAware ADS-B
Tue 06:42:02 PM 40.7510 -76.8126 281° West 426 490 30,600 -882 Descending FlightAware ADS-B
Tue 06:42:40 PM 40.7650 -76.9086 281° West 427 491 30,100 -866 Descending FlightAware ADS-B
Tue 06:43:39 PM 40.7869 -77.0608 281° West 429 494 29,200 -848 Descending FlightAware ADS-B
Tue 06:44:19 PM 40.8016 -77.1640 281° West 431 496 28,700 -610 Descending FlightAware ADS-B
Tue 06:45:37 PM 40.8280 -77.3480 281° West 430 495 28,000 -356 Descending FlightAware ADS-B
Tue 06:46:17 PM 40.8420 -77.4510 280° West 428 493 28,000  Level FlightAware ADS-B
Tue 06:46:57 PM 40.8570 -77.5570 281° West 427 491 28,000  Level FlightAware ADS-B
Tue 06:47:37 PM 40.8700 -77.6530 280° West 426 490 28,000  Level FlightAware ADS-B
Tue 06:48:22 PM 40.8870 -77.7730 281° West 430 495 28,000  Level FlightAware ADS-B
Tue 06:49:07 PM 40.9020 -77.8850 280° West 431 496 28,000  Level FlightAware ADS-B
Tue 06:49:47 PM 40.9170 -77.9940 280° West 430 495 28,000  Level FlightAware ADS-B
Tue 06:50:27 PM 40.9320 -78.0890 282° West 429 494 28,000  Level FlightAware ADS-B
Tue 06:51:07 PM 40.9500 -78.1960 283° West 427 491 28,000  Level FlightAware ADS-B
Tue 06:51:52 PM 40.9700 -78.3130 283° West 423 487 28,000  Level FlightAware ADS-B
Tue 06:52:32 PM 40.9850 -78.4080 282° West 422 486 28,000  Level FlightAware ADS-B
Tue 06:53:17 PM 41.0040 -78.5240 282° West 421 484 28,000  Level FlightAware ADS-B
Tue 06:53:57 PM 41.0200 -78.6260 282° West 421 484 28,000  Level FlightAware ADS-B
Tue 06:54:42 PM 41.0380 -78.7350 282° West 422 486 28,000  Level FlightAware ADS-B
Tue 06:55:22 PM 41.0530 -78.8320 282° West 421 484 28,000  Level FlightAware ADS-B
Tue 06:56:07 PM 41.0730 -78.9530 282° West 423 487 28,000  Level FlightAware ADS-B
Tue 06:56:47 PM 41.0890 -79.0550 282° West 423 487 28,000  Level FlightAware ADS-B
Tue 06:57:27 PM 41.1030 -79.1480 281° West 422 486 28,000  Level FlightAware ADS-B
Tue 06:58:12 PM 41.1210 -79.2630 282° West 419 482 28,000  Level FlightAware ADS-B
Tue 06:58:52 PM 41.1380 -79.3700 282° West 417 480 28,000 -150 Level FlightAware ADS-B
Tue 06:59:32 PM 41.1520 -79.4640 281° West 415 478 27,800 -635 Descending FlightAware ADS-B
Tue 07:00:17 PM 41.1700 -79.5820 281° West 410 472 27,100 -988 Descending FlightAware ADS-B
Tue 07:00:57 PM 41.1850 -79.6810 281° West 410 472 26,400 -847 Descending FlightAware ADS-B
Tue 07:01:42 PM 41.2010 -79.7860 281° West 409 471 25,900 -776 Descending FlightAware ADS-B
Tue 07:02:22 PM 41.2160 -79.8830 282° West 413 475 25,300 -776 Descending FlightAware ADS-B
Tue 07:03:07 PM 41.2320 -79.9940 281° West 413 475 24,800 -776 Descending FlightAware ADS-B
Tue 07:03:47 PM 41.2470 -80.0970 281° West 410 472 24,200 -825 Descending FlightAware ADS-B
Tue 07:04:27 PM 41.2620 -80.1940 282° West 395 455 23,700 -847 Descending FlightAware ADS-B
Tue 07:05:12 PM 41.2770 -80.2990 281° West 383 441 23,000 -1,059 Descending FlightAware ADS-B
Tue 07:05:52 PM 41.2910 -80.4040 280° West 374 430 22,200 -1,137 Descending FlightAware ADS-B
Tue 07:06:47 PM 41.2860 -80.5220 267° West 345 397 21,200 -1,020 Descending FlightAware ADS-B
Tue 07:07:32 PM 41.2840 -80.6100 268° West 343 395 20,500 -1,271 Descending FlightAware ADS-B
Tue 07:08:12 PM 41.3040 -80.7000 287° West 339 390 19,400 -1,765 Descending FlightAware ADS-B
Tue 07:08:57 PM 41.3390 -80.7770 301° West 334 384 18,000 -2,188 Descending FlightAware ADS-B
Tue 07:09:37 PM 41.3730 -80.8490 302° West 338 389 16,300 -2,329 Descending FlightAware ADS-B
Tue 07:10:22 PM 41.4090 -80.9270 302° West 338 389 14,700 -2,259 Descending FlightAware ADS-B
Tue 07:11:02 PM 41.4420 -80.9990 301° West 337 388 13,100 -2,100 Descending FlightAware ADS-B
Tue 07:11:42 PM 41.4740 -81.0680 302° West 325 374 11,900 -1,200 Descending FlightAware ADS-B
Tue 07:12:22 PM 41.5030 -81.1330 301° West 281 323 11,500 -857 Descending FlightAware ADS-B
Tue 07:12:52 PM 41.5140 -81.1770 288° West 260 299 10,900 -1,457 Descending FlightAware ADS-B
Tue 07:13:32 PM 41.5060 -81.2420 261° West 258 297 9,800 -1,543 Descending FlightAware ADS-B
Tue 07:14:02 PM 41.5000 -81.2880 260° West 252 290 9,100 -1,091 Descending FlightAware ADS-B
Tue 07:14:27 PM 41.4950 -81.3290 261° West 250 288 8,800 -1,200 Descending FlightAware ADS-B
Tue 07:14:57 PM 41.4890 -81.3720 259° West 255 293 8,000 -1,000 Descending FlightAware ADS-B
Tue 07:15:27 PM 41.4830 -81.4200 261° West 256 295 7,800 -436 Descending FlightAware ADS-B
Tue 07:15:52 PM 41.4780 -81.4580 260° West 256 295 7,600 -764 Descending FlightAware ADS-B
Tue 07:16:22 PM 41.4710 -81.5040 259° West 254 292 7,100 -800 Descending FlightAware ADS-B
Tue 07:16:52 PM 41.4650 -81.5510 260° West 255 293 6,800 -436 Descending FlightAware ADS-B
Tue 07:17:17 PM 41.4600 -81.5900 260° West 232 267 6,700 -109 Descending FlightAware ADS-B
Tue 07:17:47 PM 41.4540 -81.6300 259° West 215 247 6,700 133 Level FlightAware ADS-B
Tue 07:18:02 PM 41.4480 -81.6470 245° Southwest 215 247 6,800 150 Climbing FlightAware ADS-B
Tue 07:18:27 PM 41.4310 -81.6710 227° Southwest 217 250 6,800  Level FlightAware ADS-B
Tue 07:18:57 PM 41.4110 -81.6990 226° Southwest 213 245 6,800  Level FlightAware ADS-B
Tue 07:19:22 PM 41.3940 -81.7230 227° Southwest 210 242 6,800  Level FlightAware ADS-B
Tue 07:19:52 PM 41.3740 -81.7510 226° Southwest 212 244 6,800  Level FlightAware ADS-B
Tue 07:20:22 PM 41.3520 -81.7790 224° Southwest 214 246 6,800 -436 Level FlightAware ADS-B
Tue 07:20:47 PM 41.3360 -81.8020 227° Southwest 207 238 6,400 -1,091 Descending FlightAware ADS-B
Tue 07:21:17 PM 41.3160 -81.8280 224° Southwest 196 226 5,800 -1,418 Descending FlightAware ADS-B
Tue 07:21:42 PM 41.3000 -81.8500 226° Southwest 193 222 5,100 -1,527 Descending FlightAware ADS-B
Tue 07:22:12 PM 41.2820 -81.8720 223° Southwest 191 220 4,400 -1,400 Descending FlightAware ADS-B
Tue 07:22:42 PM 41.2610 -81.8980 223° Southwest 183 211 3,700 -1,050 Descending FlightAware ADS-B
Tue 07:22:52 PM 41.2580 -81.9060 243° Southwest 180 207 3,700 -750 Level FlightAware ADS-B
Tue 07:23:22 PM 41.2670 -81.9370 291° West 187 215 3,200 -933 Descending FlightAware ADS-B
Tue 07:23:37 PM 41.2780 -81.9450 331° Northwest 187 215 3,000 -750 Descending FlightAware ADS-B
Tue 07:24:02 PM 41.2980 -81.9560 338° Northwest 182 209 2,700 -480 Descending FlightAware ADS-B
Tue 07:24:27 PM 41.3170 -81.9640 342° North 174 200 2,600 -267 Descending FlightAware ADS-B
Tue 07:24:47 PM 41.3330 -81.9560 21° North 166 191 2,500 -533 Descending FlightAware ADS-B
Tue 07:25:12 PM 41.3490 -81.9430 31° Northeast 163 188 2,200 -764 Descending FlightAware ADS-B
Tue 07:25:42 PM 41.3650 -81.9260 39° Northeast 150 173 1,800 -982 Descending FlightAware ADS-B
Tue 07:26:07 PM 41.3780 -81.9090 44° Northeast 146 168 1,300 -1,080 Descending FlightAware ADS-B
Tue 07:26:32 PM 41.3880 -81.8920 52° Northeast 147 169 900 -462 Descending FlightAware ADS-B
Tue 07:27:12 PM 41.4050 -81.8660 49° Northeast 146 168 800 -150 Descending FlightAware ADS-B

Login

Don't have an account? Register now (free) for customized features, flight alerts, and more!